createdAt,value
2023-03-31T00:00:00.423Z,86.2
2023-03-31T00:01:16.723Z,86.2
2023-03-31T00:02:33.026Z,86.1
2023-03-31T00:03:49.315Z,86.1
2023-03-31T00:05:05.611Z,85.9
2023-03-31T00:06:21.899Z,85.9
2023-03-31T00:07:38.196Z,85.9
2023-03-31T00:08:54.481Z,85.7
2023-03-31T00:10:10.787Z,85.8
2023-03-31T00:11:27.071Z,85.7
2023-03-31T00:12:43.379Z,85.7
2023-03-31T00:13:59.675Z,85.6
2023-03-31T00:15:14.979Z,85.7
2023-03-31T00:16:31.267Z,85.6
2023-03-31T00:17:47.557Z,85.7
2023-03-31T00:19:03.858Z,85.6
2023-03-31T00:20:20.146Z,85.6
2023-03-31T00:21:36.455Z,85.6
2023-03-31T00:22:52.731Z,85.6
2023-03-31T00:25:25.323Z,85.7
2023-03-31T00:26:41.618Z,85.7
2023-03-31T00:27:57.906Z,85.7
2023-03-31T00:29:14.213Z,85.7
2023-03-31T00:30:30.511Z,85.8
2023-03-31T00:31:45.811Z,85.8
2023-03-31T00:33:02.111Z,85.7
2023-03-31T00:34:18.393Z,85.8
2023-03-31T00:35:34.690Z,85.8
2023-03-31T00:36:50.984Z,85.7
2023-03-31T00:38:07.279Z,85.7
2023-03-31T00:39:23.577Z,85.8
2023-03-31T00:40:39.867Z,85.8
2023-03-31T00:41:56.167Z,86
2023-03-31T00:43:12.462Z,86
2023-03-31T00:44:28.749Z,86
2023-03-31T00:45:45.049Z,86
2023-03-31T00:47:01.335Z,85.8
2023-03-31T00:48:16.644Z,85.8
2023-03-31T00:49:32.947Z,85.8
2023-03-31T00:50:49.239Z,86
2023-03-31T00:52:05.537Z,86.2
2023-03-31T00:53:21.824Z,86.3
2023-03-31T00:54:38.115Z,86.4
2023-03-31T00:55:54.411Z,86.5
2023-03-31T00:57:10.704Z,86.5
2023-03-31T00:58:26.996Z,86.7
2023-03-31T00:59:43.297Z,86.8
2023-03-31T01:00:59.581Z,86.9
2023-03-31T01:02:15.882Z,87
2023-03-31T01:03:32.172Z,87.1
2023-03-31T01:04:47.483Z,87.1
2023-03-31T01:06:03.788Z,87.3
2023-03-31T01:07:20.082Z,87.3
2023-03-31T01:08:36.371Z,87.2
2023-03-31T01:09:52.660Z,87.3
2023-03-31T01:11:08.957Z,87.3
2023-03-31T01:12:25.243Z,87.3
2023-03-31T01:13:41.544Z,87.3
2023-03-31T01:14:57.834Z,87.2
2023-03-31T01:16:14.140Z,87.1
2023-03-31T01:17:30.436Z,87.1
2023-03-31T01:18:46.721Z,87.1
2023-03-31T01:20:03.015Z,87.1
2023-03-31T01:21:18.326Z,87
2023-03-31T01:22:34.611Z,87
2023-03-31T01:23:50.914Z,87.1
2023-03-31T01:25:07.211Z,87
2023-03-31T01:26:23.510Z,86.9
2023-03-31T01:27:39.797Z,87
2023-03-31T01:28:56.092Z,86.9
2023-03-31T01:30:12.384Z,86.8
2023-03-31T01:31:28.673Z,86.8
2023-03-31T01:32:44.982Z,86.8
2023-03-31T01:34:01.274Z,86.9
2023-03-31T01:35:17.557Z,86.9
2023-03-31T01:36:33.849Z,87
2023-03-31T01:37:49.158Z,87.1
2023-03-31T01:39:05.461Z,87.1
2023-03-31T01:40:21.750Z,87.2
2023-03-31T01:41:38.041Z,87.2
2023-03-31T01:42:54.337Z,87.3
2023-03-31T01:44:10.639Z,87.3
2023-03-31T01:45:26.924Z,87.4
2023-03-31T01:46:43.222Z,87.3
2023-03-31T01:47:59.505Z,87.6
2023-03-31T01:49:15.804Z,87.8
2023-03-31T01:50:32.103Z,87.8
2023-03-31T01:51:48.397Z,87.8
2023-03-31T01:53:04.693Z,87.8
2023-03-31T01:54:19.992Z,87.8
2023-03-31T01:55:36.290Z,87.8
2023-03-31T01:56:52.594Z,87.9
2023-03-31T01:58:08.893Z,88
2023-03-31T01:59:25.188Z,88.2
2023-03-31T02:00:41.465Z,88.4
2023-03-31T02:01:57.769Z,88.5
2023-03-31T02:03:14.056Z,88.6
2023-03-31T02:04:30.354Z,89
2023-03-31T02:05:46.639Z,89
2023-03-31T02:07:02.943Z,89.1
2023-03-31T02:08:19.225Z,89.3
2023-03-31T02:09:35.532Z,89.5
2023-03-31T02:10:50.839Z,89.5
2023-03-31T02:12:07.130Z,89.5
2023-03-31T02:13:23.432Z,89.7
2023-03-31T02:14:39.729Z,89.5
2023-03-31T02:15:56.020Z,89.7
2023-03-31T02:17:12.331Z,89.5
2023-03-31T02:18:28.620Z,89.7
2023-03-31T02:19:44.893Z,89.5
2023-03-31T02:21:01.204Z,89.6
2023-03-31T02:22:17.481Z,89.7
2023-03-31T02:23:33.785Z,89.7
2023-03-31T02:24:50.064Z,89.8
2023-03-31T02:26:06.360Z,89.7
2023-03-31T02:27:21.672Z,89.8
2023-03-31T02:28:37.000Z,89.7
2023-03-31T02:29:54.271Z,89.7
2023-03-31T02:31:10.556Z,89.7
2023-03-31T02:32:26.842Z,89.7
2023-03-31T02:33:43.143Z,89.7
2023-03-31T02:34:59.433Z,89.7
2023-03-31T02:36:15.743Z,89.5
2023-03-31T02:37:32.028Z,89.5
2023-03-31T02:38:48.317Z,89.3
2023-03-31T02:40:04.613Z,89.3
2023-03-31T02:41:20.916Z,89.3
2023-03-31T02:42:37.219Z,89.1
2023-03-31T02:43:52.505Z,89
2023-03-31T02:45:08.807Z,88.9
2023-03-31T02:46:25.110Z,88.9
2023-03-31T02:47:41.391Z,88.9
2023-03-31T02:48:57.694Z,88.9
2023-03-31T02:50:13.997Z,88.8
2023-03-31T02:51:30.272Z,88.8
2023-03-31T02:52:46.564Z,88.8
2023-03-31T02:54:02.876Z,88.7
2023-03-31T02:55:19.162Z,88.7
2023-03-31T02:56:35.455Z,88.7
2023-03-31T02:57:51.738Z,88.7
2023-03-31T02:59:08.048Z,88.6
2023-03-31T03:00:23.348Z,88.4
2023-03-31T03:01:39.658Z,88.4
2023-03-31T03:02:55.932Z,88.3
2023-03-31T03:04:12.231Z,88.2
2023-03-31T03:05:28.543Z,88.2
2023-03-31T03:06:44.830Z,88.2
2023-03-31T03:08:01.119Z,88.1
2023-03-31T03:09:17.409Z,88
2023-03-31T03:10:33.710Z,87.9
2023-03-31T03:11:50.000Z,87.8
2023-03-31T03:13:06.299Z,87.8
2023-03-31T03:14:22.579Z,87.8
2023-03-31T03:15:38.890Z,87.8
2023-03-31T03:16:54.194Z,87.7
2023-03-31T03:18:10.487Z,87.7
2023-03-31T03:20:43.083Z,87.7
2023-03-31T03:21:59.375Z,87.6
2023-03-31T03:23:15.653Z,87.6
2023-03-31T03:24:31.963Z,87.6
2023-03-31T03:25:48.248Z,87.7
2023-03-31T03:27:04.538Z,87.7
2023-03-31T03:28:20.835Z,87.6
2023-03-31T03:29:37.141Z,87.5
2023-03-31T03:30:53.438Z,87.5
2023-03-31T03:32:09.725Z,87.4
2023-03-31T03:33:25.046Z,87.5
2023-03-31T03:34:41.331Z,87.4
2023-03-31T03:35:57.606Z,87.4
2023-03-31T03:37:13.924Z,87.4
2023-03-31T03:38:30.227Z,87.3
2023-03-31T03:39:46.487Z,87.4
2023-03-31T03:41:01.817Z,87.4
2023-03-31T03:42:18.105Z,87.3
2023-03-31T03:43:34.391Z,87.3
2023-03-31T03:44:50.688Z,87.4
2023-03-31T03:46:06.997Z,87.2
2023-03-31T03:47:23.290Z,87.2
2023-03-31T03:48:39.591Z,87.2
2023-03-31T03:49:55.868Z,87.1
2023-03-31T03:51:12.173Z,87
2023-03-31T03:52:28.465Z,86.9
2023-03-31T03:53:44.759Z,87
2023-03-31T03:55:01.039Z,86.9
2023-03-31T03:56:17.352Z,86.9
2023-03-31T03:57:32.645Z,86.9
2023-03-31T03:58:48.933Z,86.9
2023-03-31T04:00:05.240Z,86.8
2023-03-31T04:01:21.536Z,86.8
2023-03-31T04:02:37.842Z,86.6
2023-03-31T04:03:54.113Z,86.7
2023-03-31T04:05:10.404Z,86.7
2023-03-31T04:06:26.712Z,86.7
2023-03-31T04:07:43.008Z,86.8
2023-03-31T04:08:59.288Z,86.8
2023-03-31T04:10:15.584Z,86.8
2023-03-31T04:11:31.888Z,86.8
2023-03-31T04:12:48.176Z,86.9
2023-03-31T04:14:03.444Z,86.8
2023-03-31T04:15:19.718Z,86.9
2023-03-31T04:16:36.028Z,86.9
2023-03-31T04:17:52.325Z,87
2023-03-31T04:19:08.621Z,87
2023-03-31T04:20:24.910Z,87
2023-03-31T04:21:41.200Z,87
2023-03-31T04:22:57.443Z,86.9
2023-03-31T04:24:13.706Z,86.8
2023-03-31T04:25:29.976Z,86.8
2023-03-31T04:26:46.248Z,86.8
2023-03-31T04:28:02.479Z,86.8
2023-03-31T04:29:18.780Z,86.8
2023-03-31T04:30:34.089Z,86.9
2023-03-31T04:31:50.336Z,87
2023-03-31T04:33:06.578Z,87
2023-03-31T04:34:22.820Z,86.9
2023-03-31T04:35:39.052Z,87
2023-03-31T04:36:55.288Z,87.1
2023-03-31T04:38:11.538Z,87.1
2023-03-31T04:39:27.781Z,87.2
2023-03-31T04:40:44.002Z,87.3
2023-03-31T04:42:00.247Z,87.4
2023-03-31T04:43:16.497Z,87.6
2023-03-31T04:44:32.723Z,87.8
2023-03-31T04:45:48.975Z,88
2023-03-31T04:47:04.217Z,88.5
2023-03-31T04:48:20.472Z,88.3
2023-03-31T04:49:36.701Z,88.5
2023-03-31T04:50:52.947Z,88.7
2023-03-31T04:52:09.183Z,88.8
2023-03-31T04:53:25.434Z,88.7
2023-03-31T04:54:41.678Z,88.5
2023-03-31T04:55:57.899Z,88.2
2023-03-31T04:57:14.149Z,88.2
2023-03-31T04:58:30.386Z,88.1
2023-03-31T04:59:46.622Z,87.9
2023-03-31T05:01:02.870Z,87.9
2023-03-31T05:02:19.098Z,87.7
2023-03-31T05:03:34.363Z,87.7
2023-03-31T05:04:50.619Z,87.5
2023-03-31T05:06:06.834Z,87.5
2023-03-31T05:07:23.079Z,87.7
2023-03-31T05:08:39.313Z,87.5
2023-03-31T05:09:55.575Z,87.5
2023-03-31T05:11:11.806Z,87.5
2023-03-31T05:12:28.064Z,87.6
2023-03-31T05:13:44.278Z,87.7
2023-03-31T05:15:00.535Z,87.6
2023-03-31T05:16:16.767Z,87.6
2023-03-31T05:17:33.017Z,87.7
2023-03-31T05:18:49.257Z,87.8
2023-03-31T05:20:04.505Z,88.1
2023-03-31T05:21:20.731Z,88.1
2023-03-31T05:22:36.976Z,88.3
2023-03-31T05:23:53.208Z,88.5
2023-03-31T05:25:09.450Z,88.9
2023-03-31T05:26:25.693Z,89
2023-03-31T05:27:41.952Z,89.3
2023-03-31T05:28:58.175Z,89.6
2023-03-31T05:30:14.439Z,89.8
2023-03-31T05:31:30.662Z,89.8
2023-03-31T05:32:46.908Z,90
2023-03-31T05:34:03.154Z,90.1
2023-03-31T05:35:19.366Z,90.3
2023-03-31T05:36:34.623Z,90.4
2023-03-31T05:37:50.862Z,90.6
2023-03-31T05:39:07.112Z,90.7
2023-03-31T05:40:23.366Z,90.9
2023-03-31T05:41:39.592Z,90.8
2023-03-31T05:42:55.852Z,90.9
2023-03-31T05:44:12.083Z,91.2
2023-03-31T05:45:28.327Z,91.2
2023-03-31T05:46:44.547Z,91.3
2023-03-31T05:48:00.793Z,91.2
2023-03-31T05:49:17.027Z,91.2
2023-03-31T05:50:33.265Z,91.2
2023-03-31T05:51:49.503Z,91.1
2023-03-31T05:53:04.792Z,91.1
2023-03-31T05:54:21.008Z,91
2023-03-31T05:55:37.261Z,90.8
2023-03-31T05:56:53.488Z,90.8
2023-03-31T05:58:09.747Z,90.9
2023-03-31T05:59:25.976Z,90.7
2023-03-31T06:00:42.206Z,90.8
2023-03-31T06:01:58.455Z,90.8
2023-03-31T06:03:14.692Z,90.5
2023-03-31T06:04:30.936Z,90.8
2023-03-31T06:05:47.162Z,90.7
2023-03-31T06:07:03.400Z,90.5
2023-03-31T06:08:19.656Z,90.7
2023-03-31T06:09:34.915Z,90.8
2023-03-31T06:10:51.147Z,91
2023-03-31T06:12:07.395Z,91
2023-03-31T06:13:23.632Z,91.2
2023-03-31T06:14:39.862Z,91.3
2023-03-31T06:15:56.120Z,91.3
2023-03-31T06:17:12.336Z,91.3
2023-03-31T06:18:28.578Z,91.4
2023-03-31T06:19:44.834Z,91.4
2023-03-31T06:21:01.075Z,91.4
2023-03-31T06:22:17.296Z,91.6
2023-03-31T06:23:33.546Z,91.4
2023-03-31T06:24:49.793Z,91.1
2023-03-31T06:26:05.039Z,91.2
2023-03-31T06:27:21.272Z,91
2023-03-31T06:28:37.526Z,90.9
2023-03-31T06:29:53.767Z,90.9
2023-03-31T06:31:10.008Z,90.5
2023-03-31T06:32:26.244Z,90.6
2023-03-31T06:33:42.472Z,90.4
2023-03-31T06:34:58.732Z,90.2
2023-03-31T06:36:14.951Z,90.3
2023-03-31T06:37:31.206Z,90.3
2023-03-31T06:38:47.437Z,90.3
2023-03-31T06:40:03.670Z,89.8
2023-03-31T06:41:19.936Z,89.7
2023-03-31T06:42:35.166Z,89.5
2023-03-31T06:43:51.426Z,89.4
2023-03-31T06:45:07.659Z,89.6
2023-03-31T06:46:23.889Z,89.4
2023-03-31T06:47:40.135Z,89.6
2023-03-31T06:48:56.377Z,89.5
2023-03-31T06:50:12.611Z,89.2
2023-03-31T06:51:28.861Z,89.1
2023-03-31T06:52:45.088Z,89.1
2023-03-31T06:54:01.332Z,88.9
2023-03-31T06:55:17.572Z,88.5
2023-03-31T06:56:33.821Z,88.2
2023-03-31T06:57:50.072Z,88.3
2023-03-31T06:59:05.324Z,87.9
2023-03-31T07:00:21.559Z,87.9
2023-03-31T07:01:37.781Z,88.1
2023-03-31T07:02:54.044Z,88.2
2023-03-31T07:04:10.281Z,88
2023-03-31T07:05:26.501Z,87.8
2023-03-31T07:06:42.744Z,87.6
2023-03-31T07:07:58.999Z,87.6
2023-03-31T07:09:15.238Z,87.8
2023-03-31T07:10:31.466Z,87.5
2023-03-31T07:11:47.701Z,86.9
2023-03-31T07:13:03.949Z,86.7
2023-03-31T07:14:20.217Z,86.5
2023-03-31T07:15:35.457Z,86.7
2023-03-31T07:16:51.696Z,86.2
2023-03-31T07:18:07.932Z,86.5
2023-03-31T07:19:24.166Z,85.8
2023-03-31T07:20:40.411Z,85.8
2023-03-31T07:21:56.652Z,86
2023-03-31T07:23:12.892Z,86
2023-03-31T07:24:29.126Z,86
2023-03-31T07:25:45.365Z,86.2
2023-03-31T07:27:01.620Z,86.2
2023-03-31T07:28:17.836Z,86.2
2023-03-31T07:29:34.082Z,86
2023-03-31T07:30:50.320Z,86
2023-03-31T07:32:05.589Z,86.4
2023-03-31T07:33:21.828Z,86.6
2023-03-31T07:34:38.074Z,86.5
2023-03-31T07:35:54.292Z,86.3
2023-03-31T07:37:10.566Z,86.4
2023-03-31T07:38:26.780Z,86
2023-03-31T07:39:43.022Z,86
2023-03-31T07:40:59.261Z,86
2023-03-31T07:42:15.488Z,86
2023-03-31T07:43:31.729Z,86.2
2023-03-31T07:44:47.972Z,86
2023-03-31T07:46:04.210Z,85.8
2023-03-31T07:47:20.450Z,85.5
2023-03-31T07:48:35.719Z,86
2023-03-31T07:49:51.953Z,85.9
2023-03-31T07:51:08.184Z,85.2
2023-03-31T07:52:24.438Z,85.4
2023-03-31T07:53:40.675Z,85.1
2023-03-31T07:54:56.929Z,85.1
2023-03-31T07:56:12.166Z,84.9
2023-03-31T07:57:28.417Z,84.5
2023-03-31T07:58:44.648Z,84.7
2023-03-31T08:00:00.919Z,84.3
2023-03-31T08:01:17.128Z,83.5
2023-03-31T08:02:33.388Z,83.1
2023-03-31T08:03:49.623Z,82.6
2023-03-31T08:05:05.879Z,82.2
2023-03-31T08:06:22.105Z,82.2
2023-03-31T08:07:38.341Z,81.8
2023-03-31T08:08:54.583Z,81.3
2023-03-31T08:10:10.829Z,80.8
2023-03-31T08:11:27.054Z,80.4
2023-03-31T08:12:42.322Z,80.3
2023-03-31T08:13:58.570Z,80.2
2023-03-31T08:15:14.804Z,80.7
2023-03-31T08:16:31.032Z,80.4
2023-03-31T08:17:47.281Z,80.4
2023-03-31T08:19:03.500Z,80.5
2023-03-31T08:20:19.752Z,79.9
2023-03-31T08:21:36.003Z,80.4
2023-03-31T08:22:52.229Z,80.7
2023-03-31T08:24:08.471Z,80.8
2023-03-31T08:25:24.731Z,80.3
2023-03-31T08:26:40.945Z,80.9
2023-03-31T08:27:57.201Z,80.4
2023-03-31T08:29:12.461Z,80.8
2023-03-31T08:30:28.690Z,80.9
2023-03-31T08:31:44.932Z,80.5
2023-03-31T08:33:01.159Z,80.3
2023-03-31T08:34:17.419Z,80.7
2023-03-31T08:35:33.635Z,80.7
2023-03-31T08:36:49.901Z,80.3
2023-03-31T08:38:06.139Z,80.8
2023-03-31T08:39:22.370Z,80.8
2023-03-31T08:40:38.620Z,80.6
2023-03-31T08:41:54.832Z,80.7
2023-03-31T08:43:11.103Z,80.3
2023-03-31T08:44:27.328Z,80.4
2023-03-31T08:45:42.568Z,80.5
2023-03-31T08:46:58.807Z,80.3
2023-03-31T08:48:15.063Z,80.5
2023-03-31T08:49:31.311Z,81
2023-03-31T08:50:47.550Z,80.9
2023-03-31T08:52:03.794Z,80.8
2023-03-31T08:53:20.006Z,81
2023-03-31T08:54:36.249Z,81.7
2023-03-31T08:55:52.512Z,81.9
2023-03-31T08:57:08.733Z,82.8
2023-03-31T08:58:24.967Z,83.8
2023-03-31T08:59:41.216Z,83.5
2023-03-31T09:00:57.449Z,83.9
2023-03-31T09:03:28.947Z,85.7
2023-03-31T09:04:45.193Z,86.5
2023-03-31T09:06:01.421Z,87.2
2023-03-31T09:07:17.701Z,88.2
2023-03-31T09:08:33.920Z,87.8
2023-03-31T09:09:50.155Z,88.2
2023-03-31T09:11:06.406Z,88.5
2023-03-31T09:12:22.640Z,88.4
2023-03-31T09:13:38.864Z,89.6
2023-03-31T09:14:55.129Z,89.4
2023-03-31T09:16:11.343Z,89.3
2023-03-31T09:17:27.620Z,89.7
2023-03-31T09:18:42.851Z,90
2023-03-31T09:19:59.089Z,90.8
2023-03-31T09:21:15.347Z,90.5
2023-03-31T09:22:31.560Z,90.8
2023-03-31T09:23:47.810Z,91.2
2023-03-31T09:25:04.038Z,88.9
2023-03-31T09:26:20.308Z,89.5
2023-03-31T09:27:36.519Z,90.8
2023-03-31T09:28:52.781Z,90.4
2023-03-31T09:30:09.032Z,90.4
2023-03-31T09:31:25.270Z,89.9
2023-03-31T09:32:41.482Z,89.9
2023-03-31T09:33:57.744Z,90.5
2023-03-31T09:35:12.974Z,90
2023-03-31T09:36:29.210Z,90.1
2023-03-31T09:37:45.475Z,91
2023-03-31T09:39:01.697Z,90.7
2023-03-31T09:40:17.948Z,90.2
2023-03-31T09:41:34.202Z,90.6
2023-03-31T09:42:50.417Z,91.1
2023-03-31T09:44:06.651Z,91.1
2023-03-31T09:45:22.918Z,91
2023-03-31T09:46:39.156Z,92.2
2023-03-31T09:47:55.373Z,92
2023-03-31T09:49:11.636Z,92.5
2023-03-31T09:50:27.855Z,92.3
2023-03-31T09:51:43.130Z,92.3
2023-03-31T09:52:59.380Z,92.7
2023-03-31T09:54:15.601Z,93
2023-03-31T09:55:31.838Z,92.9
2023-03-31T09:56:48.093Z,92.1
2023-03-31T09:58:04.318Z,92.5
2023-03-31T09:59:20.578Z,92.1
2023-03-31T10:00:36.803Z,92.2
2023-03-31T10:01:53.066Z,92.6
2023-03-31T10:03:09.269Z,92.6
2023-03-31T10:04:25.517Z,92.1
2023-03-31T10:05:41.774Z,92.7
2023-03-31T10:06:58.012Z,92.7
2023-03-31T10:08:13.241Z,93
2023-03-31T10:09:29.479Z,92.9
2023-03-31T10:10:45.755Z,92.2
2023-03-31T10:12:01.986Z,92.8
2023-03-31T10:13:18.209Z,92.9
2023-03-31T10:14:34.471Z,92.6
2023-03-31T10:15:50.692Z,92.5
2023-03-31T10:17:06.935Z,92.5
2023-03-31T10:18:23.165Z,92.1
2023-03-31T10:19:39.402Z,92.5
2023-03-31T10:20:55.642Z,92.2
2023-03-31T10:22:11.878Z,92.7
2023-03-31T10:23:28.132Z,93.2
2023-03-31T10:24:43.403Z,93.2
2023-03-31T10:25:59.627Z,93.3
2023-03-31T10:27:15.857Z,93.2
2023-03-31T10:28:32.098Z,92.7
2023-03-31T10:29:48.337Z,92.8
2023-03-31T10:31:04.608Z,92.9
2023-03-31T10:32:20.821Z,92.9
2023-03-31T10:33:37.092Z,91.9
2023-03-31T10:34:53.296Z,92.2
2023-03-31T10:36:09.535Z,92.9
2023-03-31T10:37:25.800Z,92.7
2023-03-31T10:38:42.042Z,92.9
2023-03-31T10:39:58.260Z,92.6
2023-03-31T10:41:13.509Z,92.8
2023-03-31T10:42:29.778Z,92.2
2023-03-31T10:43:45.995Z,93.1
2023-03-31T10:45:02.259Z,93.7
2023-03-31T10:46:18.499Z,93.2
2023-03-31T10:47:34.740Z,93.6
2023-03-31T10:48:50.953Z,94
2023-03-31T10:50:07.216Z,94.3
2023-03-31T10:51:23.440Z,93.8
2023-03-31T10:52:39.695Z,94.6
2023-03-31T10:53:55.919Z,95
2023-03-31T10:55:12.175Z,94.8
2023-03-31T10:56:28.398Z,95.1
2023-03-31T10:57:43.652Z,95.4
2023-03-31T10:58:59.914Z,95.3
2023-03-31T11:00:16.159Z,95.5
2023-03-31T11:01:32.361Z,95.6
2023-03-31T11:02:48.603Z,95.6
2023-03-31T11:04:04.869Z,95.9
2023-03-31T11:05:21.111Z,95.9
2023-03-31T11:06:37.323Z,96.1
2023-03-31T11:07:53.597Z,96.4
2023-03-31T11:09:09.815Z,96.7
2023-03-31T11:10:26.047Z,96.8
2023-03-31T11:11:42.294Z,97.1
2023-03-31T11:12:58.552Z,97
2023-03-31T11:14:13.808Z,96.8
2023-03-31T11:15:30.050Z,97.2
2023-03-31T11:16:46.271Z,97.2
2023-03-31T11:18:02.530Z,97.1
2023-03-31T11:19:18.774Z,97.3
2023-03-31T11:20:35.016Z,97.2
2023-03-31T11:21:51.249Z,96.8
2023-03-31T11:23:07.498Z,96.8
2023-03-31T11:24:23.705Z,97.2
2023-03-31T11:25:39.961Z,97.5
2023-03-31T11:26:56.192Z,97.2
2023-03-31T11:28:12.418Z,97.2
2023-03-31T11:29:28.695Z,96.8
2023-03-31T11:30:43.917Z,97.4
2023-03-31T11:32:00.169Z,97.5
2023-03-31T11:33:16.420Z,97.8
2023-03-31T11:34:32.635Z,98.1
2023-03-31T11:35:48.875Z,97.9
2023-03-31T11:37:05.126Z,98.2
2023-03-31T11:38:21.355Z,98
2023-03-31T11:39:37.598Z,97.9
2023-03-31T11:40:53.861Z,98
2023-03-31T11:42:10.071Z,98.1
2023-03-31T11:43:26.326Z,98.2
2023-03-31T11:44:42.566Z,98.3
2023-03-31T11:45:58.791Z,97.9
2023-03-31T11:47:14.049Z,98
2023-03-31T11:48:30.297Z,98
2023-03-31T11:49:46.545Z,98.2
2023-03-31T11:51:02.793Z,98.2
2023-03-31T11:52:19.046Z,98.7
2023-03-31T11:53:35.246Z,98.8
2023-03-31T11:54:51.518Z,99
2023-03-31T11:56:07.752Z,99.1
2023-03-31T11:57:23.973Z,99
2023-03-31T11:58:40.206Z,99
2023-03-31T11:59:56.454Z,99.3
2023-03-31T12:01:12.697Z,99.2
2023-03-31T12:02:28.963Z,99
2023-03-31T12:03:44.189Z,98.8
2023-03-31T12:05:00.432Z,99
2023-03-31T12:06:16.671Z,99
2023-03-31T12:07:32.927Z,99.2
2023-03-31T12:08:49.169Z,99.3
2023-03-31T12:10:05.392Z,99
2023-03-31T12:11:20.649Z,99
2023-03-31T12:12:36.885Z,98.3
2023-03-31T12:13:53.122Z,98.4
2023-03-31T12:15:09.401Z,98.5
2023-03-31T12:16:25.602Z,98.6
2023-03-31T12:17:41.871Z,98.8
2023-03-31T12:18:58.086Z,99
2023-03-31T12:20:14.351Z,99.1
2023-03-31T12:21:30.600Z,99
2023-03-31T12:22:46.812Z,98.9
2023-03-31T12:24:03.082Z,99
2023-03-31T12:25:19.320Z,99.1
2023-03-31T12:26:35.523Z,99.1
2023-03-31T12:27:50.784Z,99.1
2023-03-31T12:29:07.038Z,99.2
2023-03-31T12:30:23.263Z,99.2
2023-03-31T12:31:39.511Z,99.1
2023-03-31T12:32:55.769Z,99.1
2023-03-31T12:34:12.003Z,99
2023-03-31T12:35:28.232Z,99.2
2023-03-31T12:36:44.457Z,99
2023-03-31T12:38:00.715Z,98.8
2023-03-31T12:39:16.953Z,99
2023-03-31T12:40:33.214Z,98.7
2023-03-31T12:41:49.421Z,98.8
2023-03-31T12:43:05.685Z,98.6
2023-03-31T12:44:20.930Z,98.5
2023-03-31T12:45:37.162Z,98.2
2023-03-31T12:46:53.395Z,98
2023-03-31T12:48:09.658Z,97.9
2023-03-31T12:49:25.878Z,97.8
2023-03-31T12:50:42.153Z,97.3
2023-03-31T12:51:58.361Z,97
2023-03-31T12:53:14.603Z,97.3
2023-03-31T12:54:30.845Z,97.3
2023-03-31T12:55:47.102Z,97.5
2023-03-31T12:57:03.339Z,97.3
2023-03-31T12:58:19.557Z,97.2
2023-03-31T12:59:35.820Z,97.2
2023-03-31T13:00:51.092Z,97.1
2023-03-31T13:02:07.328Z,97.5
2023-03-31T13:03:23.532Z,97.6
2023-03-31T13:04:39.770Z,97.1
2023-03-31T13:05:56.012Z,96.7
2023-03-31T13:07:12.264Z,96.3
2023-03-31T13:08:28.493Z,96.1
2023-03-31T13:09:44.734Z,96.2
2023-03-31T13:11:01.004Z,96.1
2023-03-31T13:12:17.247Z,95.8
2023-03-31T13:13:33.456Z,95.5
2023-03-31T13:14:49.689Z,95.9
2023-03-31T13:16:05.961Z,95.3
2023-03-31T13:17:21.200Z,94.7
2023-03-31T13:18:37.464Z,93.7
2023-03-31T13:19:53.670Z,92.8
2023-03-31T13:21:09.907Z,93.2
2023-03-31T13:22:26.159Z,94.1
2023-03-31T13:23:42.409Z,94.5
2023-03-31T13:24:58.662Z,93.8
2023-03-31T13:26:14.870Z,94
2023-03-31T13:27:31.108Z,93.4
2023-03-31T13:28:47.356Z,93.3
2023-03-31T13:30:03.592Z,93.6
2023-03-31T13:31:19.861Z,92.8
2023-03-31T13:32:36.071Z,92.4
2023-03-31T13:33:51.318Z,92.8
2023-03-31T13:35:07.561Z,92.7
2023-03-31T13:36:23.818Z,92.8
2023-03-31T13:37:40.070Z,91.2
2023-03-31T13:38:56.297Z,90.5
2023-03-31T13:40:12.548Z,90.6
2023-03-31T13:41:28.759Z,87.7
2023-03-31T13:42:45.033Z,89.7
2023-03-31T13:44:01.254Z,86.5
2023-03-31T13:45:17.490Z,87.7
2023-03-31T13:46:33.729Z,87.4
2023-03-31T13:47:49.957Z,87.9
2023-03-31T13:49:06.202Z,88.7
2023-03-31T13:50:21.486Z,84.8
2023-03-31T13:51:37.703Z,87.3
2023-03-31T13:52:53.933Z,86.2
2023-03-31T13:54:10.207Z,87.7
2023-03-31T13:55:26.429Z,86.8
2023-03-31T13:56:42.659Z,83.2
2023-03-31T13:57:58.896Z,84.4
2023-03-31T13:59:15.134Z,83.2
2023-03-31T14:00:31.414Z,84.1
2023-03-31T14:01:47.623Z,81.9
2023-03-31T14:03:03.881Z,81.9
2023-03-31T14:04:20.100Z,81.6
2023-03-31T14:05:36.338Z,83
2023-03-31T14:06:51.590Z,83.8
2023-03-31T14:08:07.834Z,83.1
2023-03-31T14:09:24.100Z,81
2023-03-31T14:10:40.309Z,83
2023-03-31T14:11:56.566Z,81.3
2023-03-31T14:13:12.799Z,81.7
2023-03-31T14:14:29.030Z,81.6
2023-03-31T14:15:45.300Z,81.5
2023-03-31T14:17:01.509Z,80.6
2023-03-31T14:18:17.750Z,79.8
2023-03-31T14:19:34.026Z,79.2
2023-03-31T14:20:50.226Z,81
2023-03-31T14:22:06.480Z,83
2023-03-31T14:23:21.734Z,83
2023-03-31T14:24:38.000Z,82
2023-03-31T14:25:54.234Z,81.4
2023-03-31T14:27:10.476Z,80.8
2023-03-31T14:28:26.714Z,81.5
2023-03-31T14:29:42.935Z,80.7
2023-03-31T14:30:59.191Z,80.7
2023-03-31T14:32:15.405Z,81.8
2023-03-31T14:33:31.652Z,82.2
2023-03-31T14:34:47.919Z,82.2
2023-03-31T14:36:04.000Z,82
2023-03-31T14:37:20.373Z,81.9
2023-03-31T14:38:36.609Z,82.5
2023-03-31T14:39:51.867Z,82.6
2023-03-31T14:41:08.129Z,83
2023-03-31T14:42:24.339Z,83.5
2023-03-31T14:43:40.578Z,84.4
2023-03-31T14:44:56.814Z,84
2023-03-31T14:46:13.059Z,84.5
2023-03-31T14:47:29.301Z,85.3
2023-03-31T14:48:45.540Z,86.4
2023-03-31T14:50:01.785Z,86.3
2023-03-31T14:51:18.044Z,85.6
2023-03-31T14:52:34.284Z,85
2023-03-31T14:53:50.522Z,85.6
2023-03-31T14:55:06.746Z,85.9
2023-03-31T14:56:21.997Z,87
2023-03-31T14:57:38.242Z,87.6
2023-03-31T14:58:54.475Z,88.7
2023-03-31T15:00:10.740Z,88.5
2023-03-31T15:01:26.960Z,88.4
2023-03-31T15:02:43.201Z,89.6
2023-03-31T15:03:59.444Z,91.8
2023-03-31T15:05:15.677Z,90.7
2023-03-31T15:06:31.927Z,90.9
2023-03-31T15:07:48.163Z,92.1
2023-03-31T15:09:04.393Z,93.2
2023-03-31T15:10:20.662Z,93.8
2023-03-31T15:11:36.878Z,93.5
2023-03-31T15:12:52.124Z,94
2023-03-31T15:14:08.375Z,94.1
2023-03-31T15:15:24.620Z,93.7
2023-03-31T15:16:40.857Z,93.8
2023-03-31T15:17:57.104Z,94.4
2023-03-31T15:19:13.332Z,94.8
2023-03-31T15:20:29.566Z,95.2
2023-03-31T15:21:45.805Z,95.3
2023-03-31T15:23:02.050Z,95.4
2023-03-31T15:24:18.299Z,95.7
2023-03-31T15:25:34.556Z,95.5
2023-03-31T15:26:50.765Z,95.5
2023-03-31T15:28:07.011Z,95.5
2023-03-31T15:29:22.265Z,95.9
2023-03-31T15:30:38.506Z,95.8
2023-03-31T15:31:54.741Z,96
2023-03-31T15:33:11.008Z,96
2023-03-31T15:34:27.226Z,96.2
2023-03-31T15:35:43.459Z,96.1
2023-03-31T15:36:59.730Z,96.1
2023-03-31T15:38:15.946Z,95.8
2023-03-31T15:39:32.182Z,95.1
2023-03-31T15:40:48.420Z,95.5
2023-03-31T15:42:04.664Z,94.8
2023-03-31T15:43:20.936Z,94.7
2023-03-31T15:44:37.185Z,94.3
2023-03-31T15:45:52.400Z,94.8
2023-03-31T15:47:08.670Z,94.8
2023-03-31T15:49:41.144Z,94.4
2023-03-31T15:50:57.364Z,93.8
2023-03-31T15:52:13.609Z,94.3
2023-03-31T15:54:46.082Z,92.1
2023-03-31T15:56:02.327Z,91.7
2023-03-31T15:57:18.562Z,91
2023-03-31T15:58:34.833Z,91.3
2023-03-31T15:59:51.065Z,91
2023-03-31T16:01:07.287Z,90.6
2023-03-31T16:02:22.542Z,90.6
2023-03-31T16:03:38.785Z,91.6
2023-03-31T16:04:55.017Z,91.3
2023-03-31T16:06:11.262Z,90
2023-03-31T16:07:27.500Z,87.7
2023-03-31T16:08:43.733Z,87.5
2023-03-31T16:10:00.014Z,88.6
2023-03-31T16:11:16.241Z,88.9
2023-03-31T16:12:32.454Z,88.9
2023-03-31T16:13:48.739Z,88.2
2023-03-31T16:15:04.939Z,88.5
2023-03-31T16:16:21.183Z,87.5
2023-03-31T16:17:37.409Z,88.6
2023-03-31T16:18:52.684Z,88.1
2023-03-31T16:20:08.906Z,87.8
2023-03-31T16:21:25.152Z,87.5
2023-03-31T16:22:41.389Z,87.4
2023-03-31T16:23:57.626Z,86.7
2023-03-31T16:25:13.898Z,87.1
2023-03-31T16:26:29.144Z,88
2023-03-31T16:27:45.369Z,88
2023-03-31T16:29:01.637Z,87.2
2023-03-31T16:30:17.858Z,87.8
2023-03-31T16:31:34.091Z,87.7
2023-03-31T16:32:50.344Z,88.1
2023-03-31T16:34:06.600Z,88.4
2023-03-31T16:35:22.809Z,88.7
2023-03-31T16:36:39.049Z,88.9
2023-03-31T16:37:55.321Z,88.9
2023-03-31T16:39:11.540Z,88
2023-03-31T16:40:27.779Z,87.8
2023-03-31T16:41:44.039Z,87.4
2023-03-31T16:42:59.262Z,87.5
2023-03-31T16:44:15.507Z,88.2
2023-03-31T16:45:31.779Z,86.7
2023-03-31T16:46:47.995Z,87.6
2023-03-31T16:48:04.255Z,87.4
2023-03-31T16:49:20.496Z,87.8
2023-03-31T16:50:36.746Z,87.4
2023-03-31T16:51:52.956Z,86.9
2023-03-31T16:53:09.195Z,87.5
2023-03-31T16:54:25.433Z,87.6
2023-03-31T16:55:41.666Z,88.3
2023-03-31T16:56:57.912Z,87.9
2023-03-31T16:58:14.156Z,88.5
2023-03-31T16:59:29.405Z,88.3
2023-03-31T17:00:45.675Z,88.5
2023-03-31T17:02:01.879Z,88.1
2023-03-31T17:03:18.119Z,88.7
2023-03-31T17:04:34.365Z,88.4
2023-03-31T17:05:50.609Z,88.5
2023-03-31T17:07:06.842Z,88.7
2023-03-31T17:08:23.087Z,88.4